createdAt,value
2017-08-09T00:02:17.306Z,98639.70
2017-08-09T00:04:49.960Z,98642.77
2017-08-09T00:07:22.557Z,98641.75
2017-08-09T00:09:57.489Z,98639.14
2017-08-09T00:12:30.012Z,98650.98
2017-08-09T00:15:02.036Z,98622.55
2017-08-09T00:17:33.565Z,98670.10
2017-08-09T00:20:06.387Z,98666.86
2017-08-09T00:22:38.149Z,98672.94
2017-08-09T00:25:10.448Z,98683.91
2017-08-09T00:27:43.091Z,98681.39
2017-08-09T00:30:15.272Z,98696.97
2017-08-09T00:32:46.849Z,98700.92
2017-08-09T00:35:18.870Z,98694.61
2017-08-09T00:37:50.878Z,98702.25
2017-08-09T00:40:23.141Z,98705.48
2017-08-09T00:42:56.734Z,98710.02
2017-08-09T00:45:31.090Z,98706.39
2017-08-09T00:48:02.495Z,98684.69
2017-08-09T00:50:35.318Z,98703.63
2017-08-09T00:53:09.068Z,98700.31
2017-08-09T00:55:40.663Z,98701.66
2017-08-09T00:58:12.609Z,98700.19
2017-08-09T01:00:44.497Z,98699.01
2017-08-09T01:03:16.531Z,98668.87
2017-08-09T01:05:47.817Z,98677.23
2017-08-09T01:08:20.092Z,98683.70
2017-08-09T01:10:51.841Z,98678.27
2017-08-09T01:13:24.322Z,98674.87
2017-08-09T01:16:00.251Z,98687.34
2017-08-09T01:18:36.234Z,98683.86
2017-08-09T01:21:11.967Z,98662.59
2017-08-09T01:23:47.554Z,98694.75
2017-08-09T01:26:20.794Z,98688.59
2017-08-09T01:28:58.801Z,98684.29
2017-08-09T01:31:31.215Z,98661.80
2017-08-09T01:34:05.152Z,98687.37
2017-08-09T01:36:37.329Z,98672.37
2017-08-09T01:39:14.502Z,98671.77
2017-08-09T01:41:49.995Z,98696.31
2017-08-09T01:44:22.135Z,98713.55
2017-08-09T01:46:56.545Z,98708.89
2017-08-09T01:50:35.215Z,98706.37
2017-08-09T01:53:09.414Z,98694.07
2017-08-09T01:55:41.511Z,98702.85
2017-08-09T01:58:17.079Z,98704.20
2017-08-09T02:00:56.955Z,98707.22
2017-08-09T02:03:29.146Z,98694.87
2017-08-09T02:06:06.830Z,98670.64
2017-08-09T02:08:38.284Z,98675.45
2017-08-09T02:11:10.435Z,98692.31
2017-08-09T02:13:42.260Z,98700.56
2017-08-09T02:16:13.855Z,98705.14
2017-08-09T02:18:47.090Z,98690.34
2017-08-09T02:21:23.948Z,98663.28
2017-08-09T02:24:16.271Z,98658.42
2017-08-09T02:26:51.024Z,98675.16
2017-08-09T02:29:33.152Z,98688.61
2017-08-09T02:32:07.346Z,98688.92
2017-08-09T02:34:40.304Z,98682.17
2017-08-09T02:37:15.519Z,98678.89
2017-08-09T02:42:29.765Z,98685.41
2017-08-09T02:45:04.718Z,98680.63
2017-08-09T02:47:36.200Z,98700.20
2017-08-09T02:50:07.950Z,98704.17
2017-08-09T02:52:40.022Z,98703.28
2017-08-09T02:55:12.918Z,98675.77
2017-08-09T02:57:45.645Z,98695.73
2017-08-09T03:00:23.984Z,98690.71
2017-08-09T03:02:58.812Z,98707.84
2017-08-09T03:05:31.729Z,98692.23
2017-08-09T03:08:03.765Z,98722.20
2017-08-09T03:10:37.343Z,98690.81
2017-08-09T03:13:09.039Z,98712.53
2017-08-09T03:15:42.661Z,98657.47
2017-08-09T03:18:14.632Z,98705.43
2017-08-09T03:20:47.430Z,98706.37
2017-08-09T03:23:18.701Z,98707.09
2017-08-09T03:25:53.665Z,98698.72
2017-08-09T03:28:33.453Z,98678.80
2017-08-09T03:31:05.014Z,98711.42
2017-08-09T03:33:38.052Z,98672.09
2017-08-09T03:36:10.602Z,98717.28
2017-08-09T03:38:42.959Z,98705.08
2017-08-09T03:41:15.023Z,98719.25
2017-08-09T03:43:46.252Z,98719.25
2017-08-09T03:46:26.961Z,98693.22
2017-08-09T03:49:11.461Z,98722.09
2017-08-09T03:51:46.931Z,98715.27
2017-08-09T03:54:25.294Z,98697.24
2017-08-09T03:57:05.942Z,98720.66
2017-08-09T03:59:39.163Z,98719.91
2017-08-09T04:02:12.945Z,98724.69
2017-08-09T04:04:47.406Z,98697.95
2017-08-09T04:07:22.223Z,98722.24
2017-08-09T04:09:59.483Z,98728.16
2017-08-09T04:12:33.467Z,98706.37
2017-08-09T04:15:06.394Z,98733.30
2017-08-09T04:17:40.640Z,98735.03
2017-08-09T04:20:12.791Z,98740.95
2017-08-09T04:22:44.535Z,98747.47
2017-08-09T04:25:19.407Z,98736.47
2017-08-09T04:27:51.353Z,98757.19
2017-08-09T04:30:22.841Z,98753.34
2017-08-09T04:32:59.349Z,98754.75
2017-08-09T04:35:31.571Z,98764.44
2017-08-09T04:38:06.195Z,98757.91
2017-08-09T04:40:38.174Z,98767.14
2017-08-09T04:43:15.362Z,98770.75
2017-08-09T04:45:58.059Z,98794.37
2017-08-09T04:48:33.530Z,98790.13
2017-08-09T04:51:08.073Z,98794.61
2017-08-09T04:53:40.185Z,98796.10
2017-08-09T04:56:12.655Z,98796.69
2017-08-09T04:58:46.848Z,98810.69
2017-08-09T05:01:18.004Z,98814.00
2017-08-09T05:03:52.641Z,98820.70
2017-08-09T05:06:27.191Z,98813.94
2017-08-09T05:09:06.509Z,98823.39
2017-08-09T05:11:41.339Z,98815.36
2017-08-09T05:14:14.557Z,98820.55
2017-08-09T05:16:52.958Z,98822.28
2017-08-09T05:19:28.631Z,98817.09
2017-08-09T05:22:10.775Z,98784.63
2017-08-09T05:24:45.975Z,98820.00
2017-08-09T05:27:19.746Z,98803.23
2017-08-09T05:29:52.241Z,98818.42
2017-08-09T05:32:29.028Z,98824.31
2017-08-09T05:35:07.062Z,98822.03
2017-08-09T05:37:41.128Z,98823.37
2017-08-09T05:40:14.554Z,98798.97
2017-08-09T05:42:47.124Z,98772.70
2017-08-09T05:45:23.204Z,98817.71
2017-08-09T05:48:04.357Z,98828.89
2017-08-09T05:50:40.752Z,98831.81
2017-08-09T05:53:13.979Z,98826.39
2017-08-09T05:55:48.370Z,98835.84
2017-08-09T05:58:43.791Z,98819.53
2017-08-09T06:01:19.772Z,98847.95
2017-08-09T06:03:52.049Z,98838.83
2017-08-09T06:06:25.263Z,98849.22
2017-08-09T06:08:58.655Z,98849.06
2017-08-09T06:11:33.908Z,98846.44
2017-08-09T06:14:06.194Z,98851.80
2017-08-09T06:16:42.273Z,98860.48
2017-08-09T06:19:22.699Z,98861.81
2017-08-09T06:21:58.501Z,98864.34
2017-08-09T06:24:33.192Z,98864.58
2017-08-09T06:27:07.136Z,98873.58
2017-08-09T06:29:39.444Z,98869.70
2017-08-09T06:32:44.445Z,98850.25
2017-08-09T06:35:16.387Z,98879.63
2017-08-09T06:37:52.682Z,98871.52
2017-08-09T06:40:30.571Z,98869.70
2017-08-09T06:43:02.978Z,98875.67
2017-08-09T06:45:35.321Z,98883.34
2017-08-09T06:48:07.165Z,98884.11
2017-08-09T06:50:41.269Z,98888.13
2017-08-09T06:53:12.854Z,98882.55
2017-08-09T06:55:45.228Z,98902.41
2017-08-09T06:58:16.985Z,98901.16
2017-08-09T07:00:52.104Z,98900.45
2017-08-09T07:03:28.736Z,98903.03
2017-08-09T07:06:08.699Z,98839.31
2017-08-09T07:08:44.312Z,98895.64
2017-08-09T07:11:19.662Z,98908.62
2017-08-09T07:14:06.747Z,98848.84
2017-08-09T07:16:38.894Z,98905.34
2017-08-09T07:19:10.479Z,98911.31
2017-08-09T07:21:42.892Z,98907.77
2017-08-09T07:24:14.883Z,98910.53
2017-08-09T07:26:48.714Z,98917.88
2017-08-09T07:29:23.571Z,98925.02
2017-08-09T07:32:04.274Z,98924.32
2017-08-09T07:34:43.115Z,98925.74
2017-08-09T07:37:17.938Z,98925.24
2017-08-09T07:39:51.702Z,98928.01
2017-08-09T07:42:24.975Z,98932.12
2017-08-09T07:44:59.935Z,98935.04
2017-08-09T07:47:34.591Z,98942.61
2017-08-09T07:50:08.519Z,98942.30
2017-08-09T07:52:40.670Z,98943.54
2017-08-09T07:55:13.052Z,98950.40
2017-08-09T07:57:45.647Z,98944.09
2017-08-09T08:00:18.869Z,98947.33
2017-08-09T08:02:50.403Z,98945.22
2017-08-09T08:05:22.614Z,98948.06
2017-08-09T08:08:02.322Z,98939.84
2017-08-09T08:10:35.843Z,98944.90
2017-08-09T08:13:08.664Z,98946.06
2017-08-09T08:15:41.943Z,98943.70
2017-08-09T08:18:14.871Z,98947.31
2017-08-09T08:20:46.374Z,98952.91
2017-08-09T08:23:20.546Z,98949.05
2017-08-09T08:26:03.736Z,98945.88
2017-08-09T08:28:36.429Z,98960.83
2017-08-09T08:31:08.832Z,98928.52
2017-08-09T08:33:41.739Z,98902.24
2017-08-09T08:36:13.672Z,98957.27
2017-08-09T08:38:57.485Z,98961.31
2017-08-09T08:41:31.288Z,98967.28
2017-08-09T08:44:08.004Z,98962.16
2017-08-09T08:46:39.849Z,98963.06
2017-08-09T08:49:14.703Z,98950.89
2017-08-09T08:51:48.101Z,98957.70
2017-08-09T08:54:21.318Z,98957.10
2017-08-09T08:56:56.461Z,98955.88
2017-08-09T08:59:29.584Z,98955.19
2017-08-09T09:02:02.938Z,98939.52
2017-08-09T09:04:36.813Z,98960.52
2017-08-09T09:07:10.314Z,98956.09
2017-08-09T09:09:44.816Z,98957.84
2017-08-09T09:12:17.152Z,98948.55
2017-08-09T09:14:49.310Z,98954.20
2017-08-09T09:17:22.863Z,98951.75
2017-08-09T09:19:56.669Z,98957.13
2017-08-09T09:22:30.178Z,98959.11
2017-08-09T09:25:04.160Z,98947.06
2017-08-09T09:27:36.254Z,98964.79
2017-08-09T09:30:12.047Z,98969.61
2017-08-09T09:32:47.174Z,98969.54
2017-08-09T09:35:19.263Z,98962.50
2017-08-09T09:37:57.517Z,98950.50
2017-08-09T09:40:34.272Z,98976.53
2017-08-09T09:43:06.712Z,98970.68
2017-08-09T09:45:40.017Z,98959.21
2017-08-09T09:48:18.749Z,98963.87
2017-08-09T09:50:50.496Z,98970.08
2017-08-09T09:53:26.764Z,98957.70
2017-08-09T09:56:01.030Z,98963.52
2017-08-09T09:58:33.248Z,98967.03
2017-08-09T10:01:07.606Z,98956.87
2017-08-09T10:03:40.708Z,98960.15
2017-08-09T10:06:18.832Z,98961.98
2017-08-09T10:08:52.278Z,98963.95
2017-08-09T10:11:26.984Z,98958.64
2017-08-09T10:14:03.190Z,98953.42
2017-08-09T10:16:36.014Z,98951.76
2017-08-09T10:19:11.674Z,98925.06
2017-08-09T10:21:44.262Z,98953.06
2017-08-09T10:24:16.188Z,98942.34
2017-08-09T10:26:48.068Z,98953.92
2017-08-09T10:29:19.915Z,98946.45
2017-08-09T10:31:51.655Z,98961.64
2017-08-09T10:34:23.570Z,98961.05
2017-08-09T10:36:59.791Z,98855.36
2017-08-09T10:39:32.293Z,98956.33
2017-08-09T10:42:06.739Z,98951.74
2017-08-09T10:44:51.945Z,98961.62
2017-08-09T10:47:24.117Z,98944.25
2017-08-09T10:50:00.945Z,98951.95
2017-08-09T10:52:36.775Z,98955.62
2017-08-09T10:55:13.078Z,98964.31
2017-08-09T10:57:44.731Z,98960.05
2017-08-09T11:00:16.253Z,98959.81
2017-08-09T11:02:49.474Z,98957.03
2017-08-09T11:05:24.426Z,98959.77
2017-08-09T11:08:00.513Z,98950.23
2017-08-09T11:10:33.657Z,98934.55
2017-08-09T11:13:07.523Z,98968.06
2017-08-09T11:15:40.874Z,98964.50
2017-08-09T11:18:12.950Z,98961.65
2017-08-09T11:20:44.678Z,98959.36
2017-08-09T11:23:21.033Z,98952.86
2017-08-09T11:26:00.325Z,98951.79
2017-08-09T11:28:32.959Z,98950.00
2017-08-09T11:31:05.105Z,98948.73
2017-08-09T11:33:36.983Z,98938.44
2017-08-09T11:36:08.870Z,98924.55
2017-08-09T11:38:43.482Z,98926.11
2017-08-09T11:41:17.631Z,98925.87
2017-08-09T11:43:54.828Z,98909.23
2017-08-09T11:46:26.980Z,98920.02
2017-08-09T11:49:07.684Z,98907.49
2017-08-09T11:55:35.973Z,98886.88
2017-08-09T11:58:11.699Z,98921.05
2017-08-09T12:00:51.962Z,98922.63
2017-08-09T12:03:24.624Z,98929.03
2017-08-09T12:05:59.011Z,98926.58
2017-08-09T12:08:37.740Z,98929.69
2017-08-09T12:11:09.389Z,98926.33
2017-08-09T12:13:42.876Z,98917.34
2017-08-09T12:16:16.869Z,98931.70
2017-08-09T12:18:53.298Z,98925.60
2017-08-09T12:21:26.081Z,98934.17
2017-08-09T12:24:03.864Z,98928.31
2017-08-09T12:29:19.130Z,98931.39
2017-08-09T12:31:52.620Z,98915.23
2017-08-09T12:34:27.277Z,98920.89
2017-08-09T12:37:04.392Z,98926.17
2017-08-09T12:39:35.994Z,98938.38
2017-08-09T12:42:09.311Z,98911.78
2017-08-09T12:44:41.141Z,98938.17
2017-08-09T12:47:14.753Z,98941.09
2017-08-09T12:49:48.613Z,98943.40
2017-08-09T12:52:20.686Z,98938.80
2017-08-09T12:54:57.887Z,98947.44
2017-08-09T12:57:32.425Z,98952.03
2017-08-09T13:00:04.185Z,98946.88
2017-08-09T13:02:37.301Z,98945.20
2017-08-09T13:05:09.115Z,98939.27
2017-08-09T13:07:42.019Z,98924.94
2017-08-09T13:10:15.940Z,98942.13
2017-08-09T13:12:49.941Z,98921.43
2017-08-09T13:15:23.977Z,98870.80
2017-08-09T13:17:59.946Z,98928.20
2017-08-09T13:20:33.183Z,98935.28
2017-08-09T13:23:05.441Z,98941.31
2017-08-09T13:25:37.608Z,98944.41
2017-08-09T13:28:10.314Z,98951.83
2017-08-09T13:30:42.835Z,98948.69
2017-08-09T13:33:15.842Z,98949.56
2017-08-09T13:35:48.169Z,98956.02
2017-08-09T13:38:19.878Z,98958.65
2017-08-09T13:40:52.974Z,98955.70
2017-08-09T13:43:25.264Z,98960.48
2017-08-09T13:46:01.372Z,98919.98
2017-08-09T13:48:33.476Z,98958.81
2017-08-09T13:51:05.111Z,98948.77
2017-08-09T13:53:38.367Z,98953.17
2017-08-09T13:56:10.142Z,98935.83
2017-08-09T13:58:42.663Z,98948.14
2017-08-09T14:01:15.604Z,98944.13
2017-08-09T14:03:47.525Z,98941.40
2017-08-09T14:06:20.305Z,98959.95
2017-08-09T14:09:06.224Z,98952.00
2017-08-09T14:11:38.885Z,98941.63
2017-08-09T14:14:10.638Z,98944.32
2017-08-09T14:16:47.718Z,98947.22
2017-08-09T14:19:21.161Z,98943.25
2017-08-09T14:21:53.731Z,98939.66
2017-08-09T14:24:28.461Z,98946.41
2017-08-09T14:27:05.471Z,98949.02
2017-08-09T14:29:39.565Z,98941.89
2017-08-09T14:32:11.834Z,98950.59
2017-08-09T14:34:45.039Z,98958.20
2017-08-09T14:37:17.504Z,98956.23
2017-08-09T14:39:52.509Z,98953.12
2017-08-09T14:42:23.954Z,98948.75
2017-08-09T14:45:02.420Z,98946.82
2017-08-09T14:47:36.324Z,98944.09
2017-08-09T14:50:19.458Z,98940.84
2017-08-09T14:53:00.345Z,98936.68
2017-08-09T14:55:44.721Z,98934.38
2017-08-09T14:58:19.886Z,98933.98
2017-08-09T15:00:52.982Z,98935.95
2017-08-09T15:03:27.510Z,98934.13
2017-08-09T15:06:02.304Z,98922.59
2017-08-09T15:08:37.419Z,98937.77
2017-08-09T15:11:10.261Z,98933.37
2017-08-09T15:13:44.768Z,98906.66
2017-08-09T15:16:18.885Z,98936.75
2017-08-09T15:18:51.310Z,98932.48
2017-08-09T15:21:24.674Z,98937.30
2017-08-09T15:24:03.750Z,98918.11
2017-08-09T15:26:36.958Z,98929.69
2017-08-09T15:29:09.917Z,98869.85
2017-08-09T15:31:47.178Z,98936.52
2017-08-09T15:34:19.301Z,98920.52
2017-08-09T15:36:52.530Z,98930.91
2017-08-09T15:39:25.790Z,98932.80
2017-08-09T15:41:58.217Z,98924.61
2017-08-09T15:44:30.514Z,98935.39
2017-08-09T15:47:04.221Z,98922.31
2017-08-09T15:49:41.968Z,98945.67
2017-08-09T15:52:15.569Z,98942.73
2017-08-09T15:54:47.976Z,98927.84
2017-08-09T15:57:19.974Z,98933.02
2017-08-09T16:00:08.379Z,98939.72
2017-08-09T16:02:43.553Z,98936.72
2017-08-09T16:14:00.860Z,98945.27
2017-08-09T16:16:37.779Z,98937.88
2017-08-09T16:19:11.727Z,98938.69
2017-08-09T16:21:44.575Z,98945.18
2017-08-09T16:24:16.888Z,98931.92
2017-08-09T16:26:50.014Z,98936.05
2017-08-09T16:29:21.817Z,98949.05
2017-08-09T16:32:00.786Z,98952.09
2017-08-09T16:34:33.167Z,98955.34
2017-08-09T16:37:05.181Z,98958.75
2017-08-09T16:39:44.393Z,98957.64
2017-08-09T16:42:17.471Z,98956.45
2017-08-09T16:44:50.203Z,98951.52
2017-08-09T16:47:22.535Z,98954.20
2017-08-09T16:50:08.703Z,98912.83
2017-08-09T16:52:43.317Z,98961.09
2017-08-09T16:55:16.512Z,98961.23
2017-08-09T16:57:51.603Z,98964.75
2017-08-09T17:00:27.749Z,98973.39
2017-08-09T17:03:04.167Z,98961.99
2017-08-09T17:05:39.838Z,98962.55
2017-08-09T17:08:16.868Z,98967.89
2017-08-09T17:10:50.041Z,98976.84
2017-08-09T17:13:22.381Z,98965.73
2017-08-09T17:15:59.243Z,98959.01
2017-08-09T17:18:31.702Z,98944.16
2017-08-09T17:21:03.361Z,98936.11
2017-08-09T17:23:35.276Z,98976.48
2017-08-09T17:26:07.521Z,98977.52
2017-08-09T17:28:43.457Z,98962.63
2017-08-09T17:31:20.348Z,98981.27
2017-08-09T17:33:51.773Z,98979.03
2017-08-09T17:36:23.915Z,98978.20
2017-08-09T17:39:00.098Z,98986.22
2017-08-09T17:41:34.625Z,98985.52
2017-08-09T17:44:06.841Z,98986.27
2017-08-09T17:46:41.192Z,98973.93
2017-08-09T17:49:14.996Z,98963.94
2017-08-09T17:51:47.047Z,98979.08
2017-08-09T17:54:21.563Z,98977.73
2017-08-09T17:57:03.828Z,98985.59
2017-08-09T17:59:36.014Z,98996.39
2017-08-09T18:02:07.931Z,99000.38
2017-08-09T18:04:41.759Z,99004.49
2017-08-09T18:07:13.291Z,98994.72
2017-08-09T18:09:45.767Z,99002.52
2017-08-09T18:12:21.237Z,98993.58
2017-08-09T18:14:58.438Z,99007.92
2017-08-09T18:17:31.267Z,99005.72
2017-08-09T18:20:08.830Z,98953.36
2017-08-09T18:22:41.403Z,99008.12
2017-08-09T18:25:13.926Z,99003.22
2017-08-09T18:27:45.305Z,98994.53
2017-08-09T18:30:23.392Z,99001.20
2017-08-09T18:32:56.437Z,99002.70
2017-08-09T18:35:28.412Z,99006.33
2017-08-09T18:38:06.651Z,99011.07
2017-08-09T18:40:38.433Z,99012.18
2017-08-09T18:43:10.800Z,99008.86
2017-08-09T18:45:42.790Z,99011.73
2017-08-09T18:48:16.685Z,99009.60
2017-08-09T18:50:49.020Z,99015.37
2017-08-09T18:53:25.396Z,99019.34
2017-08-09T18:56:07.727Z,99019.30
2017-08-09T18:58:40.835Z,99042.73
2017-08-09T19:01:13.366Z,99040.16
2017-08-09T19:03:46.860Z,99045.27
2017-08-09T19:06:19.359Z,99040.13
2017-08-09T19:08:50.938Z,99042.92
2017-08-09T19:11:23.021Z,99037.20
2017-08-09T19:13:59.519Z,99040.23
2017-08-09T19:16:32.954Z,99042.60
2017-08-09T19:19:04.826Z,99038.89
2017-08-09T19:21:38.469Z,99039.36
2017-08-09T19:24:11.268Z,99046.47
2017-08-09T19:26:42.792Z,99050.27
2017-08-09T19:29:15.813Z,99054.53
2017-08-09T19:31:48.387Z,99033.14
2017-08-09T19:34:21.599Z,99044.34
2017-08-09T19:36:58.039Z,99043.13
2017-08-09T19:42:12.536Z,99027.22
2017-08-09T19:44:45.773Z,99035.96
2017-08-09T19:47:22.754Z,99039.23
2017-08-09T19:49:57.843Z,99036.16
2017-08-09T19:52:29.936Z,99036.47
2017-08-09T19:55:04.743Z,99038.14
2017-08-09T19:57:39.052Z,99026.55
2017-08-09T20:00:12.769Z,99037.25
2017-08-09T20:02:44.560Z,99029.98
2017-08-09T20:05:16.924Z,99033.56
2017-08-09T20:07:49.350Z,99042.97
2017-08-09T20:10:22.859Z,99048.73
2017-08-09T20:13:00.059Z,99043.20
2017-08-09T20:15:31.802Z,99036.25
2017-08-09T20:18:05.061Z,99035.30
2017-08-09T20:20:39.902Z,99020.16
2017-08-09T20:23:19.610Z,99044.47
2017-08-09T20:25:51.850Z,99059.62
2017-08-09T20:28:26.263Z,99076.77
2017-08-09T20:31:01.260Z,99094.17
2017-08-09T20:33:38.486Z,99127.79
2017-08-09T20:36:10.432Z,99117.20
2017-08-09T20:38:42.363Z,99072.69
2017-08-09T20:41:14.892Z,99035.14
2017-08-09T20:43:46.855Z,99067.36
2017-08-09T20:46:20.392Z,99075.59
2017-08-09T20:48:52.336Z,99028.72
2017-08-09T20:51:27.089Z,99057.57
2017-08-09T20:54:01.381Z,99039.09
2017-08-09T20:56:33.502Z,99064.44
2017-08-09T20:59:05.154Z,99063.89
2017-08-09T21:01:37.658Z,99061.20
2017-08-09T21:04:10.078Z,99072.50
2017-08-09T21:06:42.005Z,99063.68
2017-08-09T21:09:16.748Z,99037.67
2017-08-09T21:11:48.318Z,99046.13
2017-08-09T21:14:20.031Z,99052.23
2017-08-09T21:16:58.226Z,99079.00
2017-08-09T21:19:31.381Z,99090.69
2017-08-09T21:22:04.365Z,99072.46
2017-08-09T21:24:36.336Z,99094.72
2017-08-09T21:27:09.888Z,99077.28
2017-08-09T21:29:41.998Z,99095.11
2017-08-09T21:32:14.402Z,99071.64
2017-08-09T21:34:46.746Z,99045.34
2017-08-09T21:37:19.432Z,99044.80
2017-08-09T21:39:51.842Z,99057.75
2017-08-09T21:42:24.604Z,99081.61
2017-08-09T21:44:58.615Z,99083.89
2017-08-09T21:47:30.883Z,99094.08
2017-08-09T21:50:03.445Z,99069.84
2017-08-09T21:52:35.728Z,99071.41
2017-08-09T21:55:08.030Z,99064.70
2017-08-09T21:57:43.104Z,99032.98
2017-08-09T22:00:17.521Z,99018.66
2017-08-09T22:02:50.936Z,99012.64
2017-08-09T22:05:26.492Z,99017.47
2017-08-09T22:08:02.365Z,99028.59
2017-08-09T22:10:38.380Z,99029.71
2017-08-09T22:13:10.485Z,99009.11
2017-08-09T22:15:42.138Z,99032.39
2017-08-09T22:18:15.039Z,99042.87
2017-08-09T22:20:47.165Z,99041.70
2017-08-09T22:23:23.039Z,99049.22
2017-08-09T22:25:58.257Z,99039.51
2017-08-09T22:28:30.878Z,99068.88
2017-08-09T22:31:02.917Z,99033.25
2017-08-09T22:33:35.165Z,99058.29
2017-08-09T22:36:07.125Z,99037.12
2017-08-09T22:38:38.702Z,99033.89
2017-08-09T22:41:10.650Z,99033.65
2017-08-09T22:43:42.399Z,99051.65
2017-08-09T22:46:20.424Z,99056.41
2017-08-09T22:48:54.304Z,99074.27
2017-08-09T22:51:29.294Z,99064.80
2017-08-09T22:54:04.910Z,99012.59
2017-08-09T22:56:38.372Z,99080.10
2017-08-09T22:59:10.591Z,99079.31
2017-08-09T23:01:45.951Z,99063.48
2017-08-09T23:04:17.653Z,99100.63
2017-08-09T23:06:52.767Z,99107.66
2017-08-09T23:09:27.509Z,99119.10
2017-08-09T23:12:03.022Z,99110.58
2017-08-09T23:14:34.422Z,99107.34
2017-08-09T23:17:06.061Z,99099.15
2017-08-09T23:19:37.728Z,99099.30
2017-08-09T23:22:09.532Z,99088.17
2017-08-09T23:24:42.417Z,99073.56
2017-08-09T23:27:14.331Z,99070.87
2017-08-09T23:29:45.926Z,99090.77
2017-08-09T23:32:18.520Z,99089.59
2017-08-09T23:34:50.674Z,99067.16
2017-08-09T23:37:23.008Z,99034.55
2017-08-09T23:39:56.508Z,99032.02
2017-08-09T23:42:30.046Z,98975.06
2017-08-09T23:45:03.616Z,99015.43
2017-08-09T23:47:36.098Z,99068.02
2017-08-09T23:50:08.088Z,99073.97
2017-08-09T23:52:41.706Z,99052.11
2017-08-09T23:55:13.744Z,99034.73
2017-08-09T23:57:45.936Z,99058.58
